| time (UTC) | temp F | wind direction | speed knots | gust knots | rain 1hr in | rain 24hr in | rain mn in | humidity % | barometer mb |
| 20260504120138 | 55 | 324 | 2.6 | 3.5 | 0.00 | 0.00 | 0.00 | 44 | 1027.5 |
| 20260504110606 | 51 | 246 | 0.0 | 0.9 | 0.00 | 0.00 | 0.00 | 48 | 1027.5 |
| 20260504100528 | 48 | 207 | 0.0 | 1.7 | 0.00 | 0.00 | 0.00 | 51 | 1027.3 |
| 20260504081921 | 47 | 275 | 0.9 | 1.7 | 0.00 | 0.00 | 0.00 | 52 | 1027.0 |
| 20260504081418 | 47 | 165 | 0.9 | 1.7 | 0.00 | 0.00 | 0.00 | 52 | 1027.1 |
| 20260504080914 | 47 | 266 | 1.7 | 2.6 | 0.00 | 0.00 | 0.00 | 52 | 1026.8 |
| 20260504080411 | 47 | 279 | 0.0 | 1.7 | 0.00 | 0.00 | 0.00 | 53 | 1027.1 |
| 20260504070338 | 43 | 215 | 0.0 | 0.0 | 0.00 | 0.00 | 0.00 | 61 | 1026.9 |
| 20260504050720 | 45 | 289 | 0.0 | 0.0 | 0.00 | 0.00 | 0.00 | 55 | 1026.7 |
| 20260504050217 | 44 | 289 | 0.0 | 0.0 | 0.00 | 0.00 | 0.00 | 56 | 1026.7 |
| 20260504045715 | 41 | 308 | 0.9 | 0.9 | 0.00 | 0.00 | 0.00 | 69 | 1026.7 |
| 20260504045210 | 40 | 329 | 0.0 | 0.9 | 0.00 | 0.00 | 0.00 | 75 | 1026.7 |
| 20260504044708 | 40 | 331 | 0.9 | 0.9 | 0.00 | 0.00 | 0.00 | 77 | 1026.5 |
| 20260504044205 | 40 | 326 | 0.9 | 1.7 | 0.00 | 0.00 | 0.00 | 77 | 1026.8 |
| 20260504043702 | 40 | 285 | 0.9 | 0.9 | 0.00 | 0.00 | 0.00 | 76 | 1026.6 |
| 20260504043158 | 41 | 284 | 0.9 | 0.9 | 0.00 | 0.00 | 0.00 | 75 | 1026.4 |
| 20260504042656 | 41 | 283 | 0.9 | 0.9 | 0.00 | 0.00 | 0.00 | 74 | 1026.5 |
| 20260504042152 | 42 | 283 | 0.0 | 0.9 | 0.00 | 0.00 | 0.00 | 72 | 1026.2 |
| 20260504041648 | 43 | 283 | 0.0 | 0.9 | 0.00 | 0.00 | 0.00 | 68 | 1026.4 |
| 20260504041144 | 43 | 283 | 0.9 | 0.9 | 0.00 | 0.00 | 0.00 | 64 | 1026.3 |
| 20260504040642 | 43 | 282 | 0.0 | 0.9 | 0.00 | 0.00 | 0.00 | 65 | 1026.2 |
| 20260504040138 | 43 | 282 | 0.0 | 0.0 | 0.00 | 0.00 | 0.00 | 62 | 1026.3 |
| 20260504035635 | 43 | 282 | 0.0 | 0.0 | 0.00 | 0.00 | 0.00 | 63 | 1026.1 |
| 20260504035132 | 43 | 282 | 0.0 | 0.0 | 0.00 | 0.00 | 0.00 | 64 | 1026.3 |
| 20260504034630 | 43 | 282 | 0.0 | 0.0 | 0.00 | 0.00 | 0.00 | 63 | 1026.1 |
| 20260504034126 | 44 | 282 | 0.0 | 0.0 | 0.00 | 0.00 | 0.00 | 62 | 1026.1 |
| 20260504033624 | 44 | 282 | 0.0 | 0.0 | 0.00 | 0.00 | 0.00 | 60 | 1026.2 |
| 20260504033121 | 44 | 282 | 0.0 | 0.0 | 0.00 | 0.00 | 0.00 | 63 | 1026.1 |
| 20260504032618 | 44 | 282 | 0.0 | 0.0 | 0.00 | 0.00 | 0.00 | 61 | 1026.2 |
| 20260504032115 | 45 | 282 | 0.0 | 0.0 | 0.00 | 0.00 | 0.00 | 61 | 1026.3 |
| 20260504031613 | 46 | 282 | 0.0 | 0.0 | 0.00 | 0.00 | 0.00 | 62 | 1026.2 |
| 20260504031108 | 46 | 282 | 0.0 | 0.0 | 0.00 | 0.00 | 0.00 | 60 | 1026.1 |
| 20260504030606 | 48 | 282 | 0.0 | 0.0 | 0.00 | 0.00 | 0.00 | 58 | 1026.1 |
| 20260504025559 | 47 | 282 | 0.0 | 0.0 | 0.00 | 0.00 | 0.00 | 53 | 1026.3 |
| 20260504025056 | 47 | 282 | 0.0 | 0.0 | 0.00 | 0.00 | 0.00 | 55 | 1026.1 |
| 20260504024553 | 47 | 282 | 0.0 | 0.0 | 0.00 | 0.00 | 0.00 | 57 | 1026.1 |
| 20260504024050 | 48 | 282 | 0.0 | 0.0 | 0.00 | 0.00 | 0.00 | 55 | 1026.2 |
| 20260504023546 | 48 | 282 | 0.0 | 0.0 | 0.00 | 0.00 | 0.00 | 51 | 1026.4 |
| 20260504023042 | 48 | 282 | 0.0 | 0.0 | 0.00 | 0.00 | 0.00 | 54 | 1026.2 |
| 20260504022538 | 48 | 282 | 0.0 | 0.0 | 0.00 | 0.00 | 0.00 | 52 | 1026.4 |
| 20260504022035 | 48 | 282 | 0.0 | 0.0 | 0.00 | 0.00 | 0.00 | 53 | 1026.3 |
| 20260504021532 | 49 | 282 | 0.0 | 0.0 | 0.00 | 0.00 | 0.00 | 50 | 1026.1 |
| 20260504021028 | 48 | 282 | 0.0 | 0.0 | 0.00 | 0.00 | 0.00 | 49 | 1026.1 |
| 20260504020525 | 48 | 282 | 0.0 | 0.0 | 0.00 | 0.00 | 0.00 | 50 | 1026.2 |
| 20260504020022 | 48 | 282 | 0.0 | 0.0 | 0.00 | 0.00 | 0.00 | 52 | 1026.2 |
| 20260504015518 | 48 | 282 | 0.0 | 0.0 | 0.00 | 0.00 | 0.00 | 53 | 1026.4 |
| 20260504015014 | 48 | 282 | 0.0 | 0.0 | 0.00 | 0.00 | 0.00 | 54 | 1026.3 |
| 20260504014510 | 49 | 282 | 0.0 | 0.0 | 0.00 | 0.00 | 0.00 | 52 | 1026.1 |
| 20260504014008 | 50 | 282 | 0.0 | 0.0 | 0.00 | 0.00 | 0.00 | 50 | 1026.2 |
| 20260504013506 | 50 | 282 | 0.0 | 0.0 | 0.00 | 0.00 | 0.00 | 46 | 1026.1 |
| 20260504013001 | 51 | 282 | 0.0 | 0.0 | 0.00 | 0.00 | 0.00 | 47 | 1026.1 |
| 20260504012500 | 51 | 282 | 0.0 | 0.0 | 0.00 | 0.00 | 0.00 | 46 | 1026.1 |
| 20260504011958 | 51 | 282 | 0.0 | 0.9 | 0.00 | 0.00 | 0.00 | 44 | 1026.1 |
| 20260504011454 | 51 | 282 | 0.0 | 0.9 | 0.00 | 0.00 | 0.00 | 44 | 1026.0 |
| 20260504010950 | 52 | 282 | 0.0 | 0.9 | 0.00 | 0.00 | 0.00 | 46 | 1026.3 |
| 20260504010446 | 52 | 282 | 0.0 | 0.9 | 0.00 | 0.00 | 0.00 | 42 | 1026.1 |
| 20260504005942 | 53 | 282 | 0.9 | 0.9 | 0.00 | 0.00 | 0.00 | 42 | 1026.1 |
| 20260504005439 | 53 | 282 | 0.9 | 0.9 | 0.00 | 0.00 | 0.00 | 43 | 1025.9 |
| 20260504004936 | 53 | 282 | 0.0 | 0.0 | 0.00 | 0.00 | 0.00 | 42 | 1025.8 |
| 20260504004434 | 53 | 282 | 0.0 | 0.9 | 0.00 | 0.00 | 0.00 | 42 | 1025.8 |
| 20260504003931 | 53 | 282 | 0.9 | 0.9 | 0.00 | 0.00 | 0.00 | 40 | 1025.7 |
| 20260504003427 | 54 | 279 | 0.9 | 0.9 | 0.00 | 0.00 | 0.00 | 41 | 1025.7 |
| 20260504002923 | 54 | 272 | 0.9 | 1.7 | 0.00 | 0.00 | 0.00 | 40 | 1025.5 |
| 20260504002420 | 55 | 285 | 0.0 | 0.9 | 0.00 | 0.00 | 0.00 | 39 | 1025.6 |
| 20260504001918 | 55 | 285 | 0.0 | 2.6 | 0.00 | 0.00 | 0.00 | 38 | 1025.6 |
| 20260504001416 | 55 | 278 | 1.7 | 2.6 | 0.00 | 0.00 | 0.00 | 37 | 1025.4 |
| 20260504000912 | 55 | 276 | 1.7 | 2.6 | 0.00 | 0.00 | 0.00 | 37 | 1025.4 |
| 20260504000409 | 56 | 276 | 0.9 | 1.7 | 0.00 | 0.00 | 0.00 | 37 | 1025.3 |
| 20260503235907 | 56 | 293 | 1.7 | 2.6 | 0.00 | 0.00 | 0.00 | 36 | 1025.3 |
| 20260503235404 | 56 | 295 | 0.9 | 0.9 | 0.00 | 0.00 | 0.00 | 36 | 1025.2 |
| 20260503234901 | 56 | 296 | 0.9 | 1.7 | 0.00 | 0.00 | 0.00 | 36 | 1025.2 |
| 20260503234359 | 56 | 295 | 0.9 | 1.7 | 0.00 | 0.00 | 0.00 | 36 | 1025.0 |
| 20260503233856 | 56 | 272 | 0.9 | 2.6 | 0.00 | 0.00 | 0.00 | 35 | 1025.0 |
| 20260503233353 | 56 | 288 | 1.7 | 1.7 | 0.00 | 0.00 | 0.00 | 36 | 1024.9 |
| 20260503232850 | 56 | 289 | 0.0 | 1.7 | 0.00 | 0.00 | 0.00 | 36 | 1024.9 |
| 20260503232347 | 56 | 320 | 0.0 | 0.9 | 0.00 | 0.00 | 0.00 | 36 | 1024.9 |
| 20260503231844 | 56 | 284 | 1.7 | 1.7 | 0.00 | 0.00 | 0.00 | 35 | 1024.9 |
| 20260503231341 | 56 | 286 | 0.0 | 0.9 | 0.00 | 0.00 | 0.00 | 36 | 1024.8 |
| 20260503230837 | 56 | 265 | 0.9 | 1.7 | 0.00 | 0.00 | 0.00 | 35 | 1024.7 |
| 20260503230334 | 56 | 333 | 0.9 | 1.7 | 0.00 | 0.00 | 0.00 | 35 | 1024.7 |
| 20260503225827 | 57 | 334 | 0.9 | 2.6 | 0.00 | 0.00 | 0.00 | 34 | 1024.7 |
| 20260503225322 | 57 | 325 | 1.7 | 2.6 | 0.00 | 0.00 | 0.00 | 33 | 1024.6 |
| 20260503224818 | 57 | 349 | 3.5 | 5.2 | 0.00 | 0.00 | 0.00 | 34 | 1024.5 |
| 20260503224316 | 57 | 282 | 0.9 | 2.6 | 0.00 | 0.00 | 0.00 | 35 | 1024.6 |
| 20260503223814 | 57 | 341 | 1.7 | 6.1 | 0.00 | 0.00 | 0.00 | 33 | 1024.6 |
| 20260503223311 | 57 | 315 | 2.6 | 3.5 | 0.00 | 0.00 | 0.00 | 34 | 1024.5 |
| 20260503222807 | 57 | 334 | 1.7 | 3.5 | 0.00 | 0.00 | 0.00 | 31 | 1024.7 |
| 20260503222306 | 58 | 347 | 2.6 | 6.1 | 0.00 | 0.00 | 0.00 | 32 | 1024.5 |
| 20260503221803 | 58 | 308 | 1.7 | 7.0 | 0.00 | 0.00 | 0.00 | 31 | 1024.3 |
| 20260503221301 | 58 | 288 | 2.6 | 5.2 | 0.00 | 0.00 | 0.00 | 30 | 1024.3 |
| 20260503220757 | 57 | 284 | 3.5 | 6.1 | 0.00 | 0.00 | 0.00 | 31 | 1024.3 |
| 20260503220254 | 57 | 309 | 1.7 | 7.0 | 0.00 | 0.00 | 0.00 | 30 | 1024.4 |
| 20260503215750 | 56 | 310 | 2.6 | 3.5 | 0.00 | 0.00 | 0.00 | 31 | 1024.4 |
| 20260503215248 | 57 | 321 | 2.6 | 3.5 | 0.00 | 0.00 | 0.00 | 30 | 1024.5 |
| 20260503214746 | 57 | 313 | 3.5 | 5.2 | 0.00 | 0.00 | 0.00 | 29 | 1024.3 |
| 20260503214242 | 57 | 271 | 2.6 | 3.5 | 0.00 | 0.00 | 0.00 | 30 | 1024.3 |
| 20260503213740 | 58 | 287 | 0.9 | 7.0 | 0.00 | 0.00 | 0.00 | 30 | 1024.4 |
| 20260503213237 | 58 | 316 | 0.9 | 2.6 | 0.00 | 0.00 | 0.00 | 28 | 1024.3 |
| 20260503212734 | 58 | 341 | 2.6 | 7.8 | 0.00 | 0.00 | 0.00 | 28 | 1024.2 |
| 20260503212232 | 58 | 314 | 1.7 | 6.1 | 0.00 | 0.00 | 0.00 | 29 | 1024.2 |
| 20260503211730 | 58 | 353 | 2.6 | 7.8 | 0.00 | 0.00 | 0.00 | 28 | 1024.2 |
| 20260503211225 | 58 | 295 | 3.5 | 9.6 | 0.00 | 0.00 | 0.00 | 28 | 1024.1 |
| 20260503210721 | 57 | 336 | 3.5 | 5.2 | 0.00 | 0.00 | 0.00 | 28 | 1024.4 |
| 20260503210219 | 58 | 328 | 4.3 | 6.1 | 0.00 | 0.00 | 0.00 | 27 | 1024.1 |
| 20260503205714 | 58 | 349 | 2.6 | 3.5 | 0.00 | 0.00 | 0.00 | 30 | 1024.2 |
| 20260503205210 | 58 | 341 | 2.6 | 7.8 | 0.00 | 0.00 | 0.00 | 29 | 1024.0 |
| 20260503204707 | 58 | 314 | 1.7 | 6.1 | 0.00 | 0.00 | 0.00 | 28 | 1024.1 |
| 20260503204205 | 59 | 287 | 1.7 | 11.3 | 0.00 | 0.00 | 0.00 | 29 | 1024.3 |
| 20260503203702 | 59 | 292 | 1.7 | 7.0 | 0.00 | 0.00 | 0.00 | 30 | 1024.3 |
| 20260503203159 | 58 | 7 | 4.3 | 7.0 | 0.00 | 0.00 | 0.00 | 28 | 1024.5 |
| 20260503202656 | 58 | 340 | 2.6 | 8.7 | 0.00 | 0.00 | 0.00 | 30 | 1024.2 |
| 20260503202154 | 57 | 312 | 0.9 | 7.0 | 0.00 | 0.00 | 0.00 | 30 | 1024.5 |
| 20260503201652 | 57 | 284 | 3.5 | 7.8 | 0.00 | 0.00 | 0.00 | 30 | 1024.5 |
| 20260503201149 | 58 | 3 | 2.6 | 7.0 | 0.00 | 0.00 | 0.00 | 30 | 1024.3 |
| 20260503200644 | 57 | 325 | 4.3 | 7.8 | 0.00 | 0.00 | 0.00 | 30 | 1024.4 |
| 20260503200141 | 57 | 283 | 4.3 | 6.1 | 0.00 | 0.00 | 0.00 | 30 | 1024.5 |
| 20260503195638 | 56 | 283 | 0.9 | 2.6 | 0.00 | 0.00 | 0.00 | 32 | 1024.6 |
| 20260503195135 | 57 | 313 | 2.6 | 2.6 | 0.00 | 0.00 | 0.00 | 32 | 1024.8 |
| 20260503194633 | 57 | 339 | 1.7 | 7.0 | 0.00 | 0.00 | 0.00 | 33 | 1024.5 |
| 20260503194128 | 57 | 5 | 3.5 | 6.1 | 0.00 | 0.00 | 0.00 | 30 | 1024.7 |
| 20260503193625 | 56 | 260 | 1.7 | 7.8 | 0.00 | 0.00 | 0.00 | 33 | 1024.7 |
| 20260503193120 | 55 | 343 | 3.5 | 7.0 | 0.00 | 0.00 | 0.00 | 33 | 1024.9 |
| 20260503192616 | 56 | 348 | 4.3 | 7.0 | 0.00 | 0.00 | 0.00 | 34 | 1024.9 |
| 20260503192112 | 57 | 309 | 0.9 | 6.1 | 0.00 | 0.00 | 0.00 | 33 | 1024.9 |
| 20260503191609 | 57 | 304 | 3.5 | 3.5 | 0.00 | 0.00 | 0.00 | 32 | 1025.1 |
| 20260503191105 | 57 | 305 | 3.5 | 5.2 | 0.00 | 0.00 | 0.00 | 32 | 1024.8 |
| 20260503190603 | 56 | 272 | 1.7 | 5.2 | 0.00 | 0.00 | 0.00 | 32 | 1025.0 |
| 20260503190100 | 56 | 2 | 0.9 | 8.7 | 0.00 | 0.00 | 0.00 | 36 | 1025.1 |
| 20260503185556 | 56 | 300 | 4.3 | 13.9 | 0.00 | 0.00 | 0.00 | 33 | 1024.8 |
| 20260503185056 | 56 | 297 | 3.5 | 7.8 | 0.00 | 0.00 | 0.00 | 33 | 1025.0 |
| 20260503184552 | 56 | 326 | 4.3 | 7.0 | 0.00 | 0.00 | 0.00 | 32 | 1025.1 |
| 20260503184048 | 55 | 272 | 3.5 | 6.1 | 0.00 | 0.00 | 0.00 | 34 | 1025.0 |
| 20260503183545 | 55 | 318 | 2.6 | 5.2 | 0.00 | 0.00 | 0.00 | 36 | 1025.2 |
| 20260503183042 | 56 | 282 | 3.5 | 6.1 | 0.00 | 0.00 | 0.00 | 34 | 1025.3 |
| 20260503182541 | 57 | 332 | 1.7 | 5.2 | 0.00 | 0.00 | 0.00 | 39 | 1025.2 |
| 20260503182039 | 56 | 319 | 2.6 | 2.6 | 0.00 | 0.00 | 0.00 | 36 | 1025.3 |
| 20260503181535 | 55 | 337 | 3.5 | 6.1 | 0.00 | 0.00 | 0.00 | 36 | 1025.4 |
| 20260503181031 | 54 | 295 | 3.5 | 8.7 | 0.00 | 0.00 | 0.00 | 35 | 1025.5 |
| 20260503180529 | 52 | 317 | 3.5 | 3.5 | 0.00 | 0.00 | 0.00 | 36 | 1025.4 |
| 20260503180026 | 53 | 353 | 3.5 | 6.1 | 0.00 | 0.00 | 0.00 | 36 | 1025.4 |
| 20260503175523 | 53 | 272 | 1.7 | 3.5 | 0.00 | 0.00 | 0.00 | 36 | 1025.6 |
| 20260503175020 | 52 | 34 | 2.6 | 6.1 | 0.00 | 0.00 | 0.00 | 38 | 1025.7 |
| 20260503174518 | 53 | 28 | 0.9 | 1.7 | 0.00 | 0.00 | 0.00 | 39 | 1025.6 |
| 20260503174014 | 52 | 311 | 1.7 | 5.2 | 0.00 | 0.00 | 0.00 | 40 | 1026.0 |
| 20260503173509 | 51 | 319 | 1.7 | 7.8 | 0.00 | 0.00 | 0.00 | 41 | 1025.8 |
| 20260503173005 | 51 | 282 | 3.5 | 5.2 | 0.00 | 0.00 | 0.00 | 40 | 1025.9 |
| 20260503172504 | 51 | 336 | 2.6 | 3.5 | 0.00 | 0.00 | 0.00 | 41 | 1025.8 |
| 20260503172000 | 50 | 298 | 0.9 | 2.6 | 0.00 | 0.00 | 0.00 | 43 | 1025.9 |
| 20260503171456 | 50 | 260 | 1.7 | 5.2 | 0.00 | 0.00 | 0.00 | 41 | 1025.8 |
| 20260503170954 | 50 | 281 | 1.7 | 6.1 | 0.00 | 0.00 | 0.00 | 41 | 1025.8 |
| 20260503170450 | 50 | 274 | 3.5 | 7.0 | 0.00 | 0.00 | 0.00 | 41 | 1026.1 |
| 20260503150831 | 49 | 59 | 2.6 | 3.5 | 0.00 | 0.00 | 0.00 | 39 | 1025.9 |
| 20260503150327 | 50 | 345 | 4.3 | 12.2 | 0.00 | 0.00 | 0.00 | 35 | 1026.0 |
| 20260503140251 | 48 | 307 | 4.3 | 7.8 | 0.00 | 0.00 | 0.00 | 48 | 1026.2 |
| 20260503131220 | 46 | 63 | 0.9 | 6.1 | 0.00 | 0.00 | 0.00 | 50 | 1026.5 |
| 20260503130718 | 45 | 316 | 2.6 | 6.1 | 0.00 | 0.00 | 0.00 | 50 | 1026.3 |
| 20260503130215 | 45 | 325 | 3.5 | 5.2 | 0.00 | 0.00 | 0.00 | 50 | 1026.5 |